Time;durP1;ratioP1;P1;durP2;ratioP2;P2;SDS_P1;SDS_P2;PMS_P1;PMS_P2;Temp;Humidity;BMP_temperature;BMP_pressure;BME280_temperature;BME280_humidity;BME280_pressure;Samples;Min_cycle;Max_cycle;Signal;HPM_P1;HPM_P2
2021/01/09 15:22:50;;;;;;;40.17;20.30;;;-1.40;92.50;;;;;;5044884;28;20772;-95
2021/01/09 15:25:16;;;;;;;44.33;22.23;;;-1.50;92.90;;;;;;5029426;28;20030;-94
2021/01/09 15:27:41;;;;;;;44.22;24.20;;;-1.50;93.30;;;;;;5027134;28;20041;-93
2021/01/09 15:30:08;;;;;;;53.28;26.67;;;-1.40;93.70;;;;;;5033399;28;20386;-95
2021/01/09 15:32:33;;;;;;;46.90;25.00;;;-1.30;94.00;;;;;;5047083;28;20143;-96
2021/01/09 15:34:59;;;;;;;47.78;25.48;;;-1.30;94.20;;;;;;5030570;28;20045;-96
2021/01/09 15:37:25;;;;;;;50.67;26.77;;;-1.20;94.30;;;;;;5032485;28;20030;-95
2021/01/09 15:39:50;;;;;;;47.35;26.48;;;-1.20;94.50;;;;;;5036128;28;20113;-96
2021/01/09 15:42:16;;;;;;;52.40;28.10;;;-1.10;94.50;;;;;;5143524;23;20050;-96
2021/01/09 15:44:42;;;;;;;44.92;25.75;;;-1.20;94.50;;;;;;4997296;28;20034;-96
2021/01/09 15:47:08;;;;;;;50.33;29.20;;;-1.10;94.70;;;;;;5006167;28;20491;-96
2021/01/09 15:49:34;;;;;;;53.17;30.85;;;-1.10;94.70;;;;;;4999413;28;20029;-95
2021/01/09 15:52:00;;;;;;;52.33;29.60;;;-1.00;94.70;;;;;;5000692;28;20022;-95
2021/01/09 15:54:26;;;;;;;66.22;34.22;;;-1.10;94.70;;;;;;5002227;28;20474;-94
2021/01/09 15:56:51;;;;;;;68.22;36.53;;;-1.00;94.70;;;;;;4995227;28;20515;-95
2021/01/09 15:59:17;;;;;;;62.30;34.00;;;-1.00;94.90;;;;;;5002259;28;20030;-96
2021/01/09 16:01:43;;;;;;;61.63;31.70;;;-0.90;94.70;;;;;;5009918;28;20034;-96
2021/01/09 16:04:10;;;;;;;60.78;32.60;;;-0.80;94.60;;;;;;5006999;28;20033;-95
2021/01/09 16:06:36;;;;;;;59.70;30.13;;;-0.80;94.60;;;;;;4998461;28;20019;-95
2021/01/09 16:09:07;;;;;;;56.97;28.23;;;-0.80;94.50;;;;;;5000716;28;20045;-96
2021/01/09 16:11:33;;;;;;;51.78;28.58;;;-0.70;94.50;;;;;;5006309;28;20031;-96
2021/01/09 16:13:59;;;;;;;49.88;26.95;;;-0.70;94.40;;;;;;5000803;28;20036;-96
2021/01/09 16:16:27;;;;;;;54.10;29.25;;;-0.70;94.40;;;;;;5005226;28;20030;-96
2021/01/09 16:18:53;;;;;;;52.08;29.05;;;-0.70;94.40;;;;;;5009665;28;20033;-96
2021/01/09 16:21:21;;;;;;;59.50;33.40;;;-0.70;94.30;;;;;;5009349;28;20033;-96
2021/01/09 16:23:46;;;;;;;71.15;33.45;;;-0.70;94.30;;;;;;4997164;28;20037;-96
2021/01/09 16:26:14;;;;;;;61.13;32.45;;;-0.70;94.30;;;;;;4991887;28;20387;-94
2021/01/09 16:49:03;;;;;;;103.32;50.13;;;-1.30;93.00;;;;;;5476061;23;20411;-93
2021/01/09 16:51:29;;;;;;;176.35;84.07;;;-1.40;93.30;;;;;;4985070;28;20087;-93
2021/01/09 16:53:58;;;;;;;145.15;71.22;;;-1.40;93.50;;;;;;4983316;28;20030;-96
2021/01/09 16:56:36;;;;;;;121.60;57.42;;;-1.40;93.70;;;;;;4972212;28;20030;-93
2021/01/09 16:59:05;;;;;;;106.53;48.30;;;-1.40;93.90;;;;;;4992823;28;20033;-96
2021/01/09 17:01:31;;;;;;;101.07;50.63;;;-1.40;94.10;;;;;;4974600;28;20035;-96
2021/01/09 17:03:58;;;;;;;86.68;43.53;;;-1.40;94.10;;;;;;4980239;28;20103;-96
2021/01/09 17:06:51;;;;;;;81.88;41.17;;;-1.40;94.20;;;;;;4992764;28;20066;-96
2021/01/09 17:09:17;;;;;;;72.13;37.50;;;-1.40;94.20;;;;;;4980433;28;20031;-93
2021/01/09 17:11:44;;;;;;;70.30;35.92;;;-1.40;94.30;;;;;;4963757;28;20034;-93
2021/01/09 17:14:55;;;;;;;59.80;31.27;;;-1.40;94.30;;;;;;4975152;28;20019;-96
2021/01/09 17:32:45;;;;;;;59.60;29.85;;;-1.50;94.20;;;;;;4990610;28;20049;-96
2021/01/09 17:37:50;;;;;;;66.47;35.38;;;-1.60;94.20;;;;;;5580119;23;20046;-95
2021/01/09 17:40:17;;;;;;;68.00;36.25;;;-1.60;94.20;;;;;;5005190;28;20031;-95
2021/01/09 19:24:19;;;;;;;92.68;43.03;;;-3.30;93.30;;;;;;5053693;28;20755;-94
2021/01/09 19:26:49;;;;;;;75.15;38.08;;;-3.20;93.70;;;;;;5049878;28;20116;-94
2021/01/09 19:29:17;;;;;;;80.20;41.65;;;-3.20;94.00;;;;;;5043027;28;20080;-95
2021/01/09 19:31:44;;;;;;;71.82;39.28;;;-3.00;94.30;;;;;;5011861;28;20482;-94
2021/01/09 19:34:10;;;;;;;70.32;38.47;;;-2.90;94.40;;;;;;5011054;28;20030;-94
2021/01/09 19:36:36;;;;;;;66.10;34.60;;;-2.80;94.60;;;;;;5027666;28;20034;-94
2021/01/09 20:09:43;;;;;;;61.05;32.13;;;-2.60;93.50;;;;;;5062308;28;20369;-93
2021/01/09 20:12:09;;;;;;;58.95;31.10;;;-2.60;94.00;;;;;;5042183;28;20487;-93
